sensor_id;sensor_type;location;lat;lon;timestamp;temperature;humidity
27890;DHT22;15238;49.082;9.102;2023-07-20T00:01:44;19.90;86.30
27890;DHT22;15238;49.082;9.102;2023-07-20T00:03:45;19.80;86.40
27890;DHT22;15238;49.082;9.102;2023-07-20T00:05:49;19.80;86.50
27890;DHT22;15238;49.082;9.102;2023-07-20T00:07:50;19.70;86.80
27890;DHT22;15238;49.082;9.102;2023-07-20T00:09:52;19.70;87.00
27890;DHT22;15238;49.082;9.102;2023-07-20T00:11:53;19.70;87.00
27890;DHT22;15238;49.082;9.102;2023-07-20T00:13:53;19.60;87.50
27890;DHT22;15238;49.082;9.102;2023-07-20T00:15:54;19.50;87.80
27890;DHT22;15238;49.082;9.102;2023-07-20T00:17:55;19.60;87.80
27890;DHT22;15238;49.082;9.102;2023-07-20T00:19:55;19.50;87.80
27890;DHT22;15238;49.082;9.102;2023-07-20T00:21:56;19.50;88.10
27890;DHT22;15238;49.082;9.102;2023-07-20T00:23:56;19.50;88.10
27890;DHT22;15238;49.082;9.102;2023-07-20T00:25:57;19.40;88.30
27890;DHT22;15238;49.082;9.102;2023-07-20T00:27:57;19.40;88.60
27890;DHT22;15238;49.082;9.102;2023-07-20T00:29:58;19.40;88.50
27890;DHT22;15238;49.082;9.102;2023-07-20T00:31:59;19.40;88.70
27890;DHT22;15238;49.082;9.102;2023-07-20T00:33:59;19.50;88.70
27890;DHT22;15238;49.082;9.102;2023-07-20T00:36:00;19.40;88.80
27890;DHT22;15238;49.082;9.102;2023-07-20T00:38:00;19.30;88.90
27890;DHT22;15238;49.082;9.102;2023-07-20T00:40:01;19.30;89.00
27890;DHT22;15238;49.082;9.102;2023-07-20T00:42:05;19.20;89.00
27890;DHT22;15238;49.082;9.102;2023-07-20T00:44:05;19.30;89.10
27890;DHT22;15238;49.082;9.102;2023-07-20T00:46:07;19.20;89.10
27890;DHT22;15238;49.082;9.102;2023-07-20T00:48:08;19.20;89.30
27890;DHT22;15238;49.082;9.102;2023-07-20T00:50:09;19.10;89.70
27890;DHT22;15238;49.082;9.102;2023-07-20T00:52:11;19.00;90.30
27890;DHT22;15238;49.082;9.102;2023-07-20T00:54:14;19.00;90.00
27890;DHT22;15238;49.082;9.102;2023-07-20T00:56:15;19.00;90.00
27890;DHT22;15238;49.082;9.102;2023-07-20T00:58:16;18.90;90.10
27890;DHT22;15238;49.082;9.102;2023-07-20T01:00:17;18.80;90.20
27890;DHT22;15238;49.082;9.102;2023-07-20T01:02:18;18.80;90.30
27890;DHT22;15238;49.082;9.102;2023-07-20T01:04:19;18.70;90.40
27890;DHT22;15238;49.082;9.102;2023-07-20T01:06:48;18.80;90.40
27890;DHT22;15238;49.082;9.102;2023-07-20T01:13:22;18.70;90.70
27890;DHT22;15238;49.082;9.102;2023-07-20T01:15:23;18.70;90.70
27890;DHT22;15238;49.082;9.102;2023-07-20T01:17:24;18.60;90.70
27890;DHT22;15238;49.082;9.102;2023-07-20T01:19:24;18.60;90.90
27890;DHT22;15238;49.082;9.102;2023-07-20T01:21:32;18.60;91.00
27890;DHT22;15238;49.082;9.102;2023-07-20T01:24:11;18.60;91.00
27890;DHT22;15238;49.082;9.102;2023-07-20T01:28:40;18.50;91.40
27890;DHT22;15238;49.082;9.102;2023-07-20T01:33:12;18.50;91.60
27890;DHT22;15238;49.082;9.102;2023-07-20T01:35:15;18.50;91.70
27890;DHT22;15238;49.082;9.102;2023-07-20T01:37:17;18.40;91.70
27890;DHT22;15238;49.082;9.102;2023-07-20T01:39:21;18.30;91.80
27890;DHT22;15238;49.082;9.102;2023-07-20T01:41:22;18.30;92.00
27890;DHT22;15238;49.082;9.102;2023-07-20T01:43:23;18.30;92.20
27890;DHT22;15238;49.082;9.102;2023-07-20T01:45:23;18.20;92.40
27890;DHT22;15238;49.082;9.102;2023-07-20T01:47:24;18.20;92.50
27890;DHT22;15238;49.082;9.102;2023-07-20T01:49:24;18.10;92.50
27890;DHT22;15238;49.082;9.102;2023-07-20T01:51:25;18.10;92.60
27890;DHT22;15238;49.082;9.102;2023-07-20T01:53:25;18.00;92.90
27890;DHT22;15238;49.082;9.102;2023-07-20T01:55:26;17.90;93.00
27890;DHT22;15238;49.082;9.102;2023-07-20T01:57:26;17.80;93.30
27890;DHT22;15238;49.082;9.102;2023-07-20T01:59:27;17.80;93.60
27890;DHT22;15238;49.082;9.102;2023-07-20T02:01:28;17.80;93.80
27890;DHT22;15238;49.082;9.102;2023-07-20T02:03:29;17.70;93.80
27890;DHT22;15238;49.082;9.102;2023-07-20T02:05:29;17.70;93.90
27890;DHT22;15238;49.082;9.102;2023-07-20T02:07:30;17.70;94.00
27890;DHT22;15238;49.082;9.102;2023-07-20T02:09:31;17.60;94.10
27890;DHT22;15238;49.082;9.102;2023-07-20T02:11:31;17.60;94.30
27890;DHT22;15238;49.082;9.102;2023-07-20T02:13:32;17.60;94.30
27890;DHT22;15238;49.082;9.102;2023-07-20T02:15:32;17.60;94.40
27890;DHT22;15238;49.082;9.102;2023-07-20T02:17:33;17.60;94.50
27890;DHT22;15238;49.082;9.102;2023-07-20T02:19:34;17.60;94.70
27890;DHT22;15238;49.082;9.102;2023-07-20T02:21:34;17.60;94.90
27890;DHT22;15238;49.082;9.102;2023-07-20T02:23:35;17.60;95.00
27890;DHT22;15238;49.082;9.102;2023-07-20T02:25:35;17.60;95.00
27890;DHT22;15238;49.082;9.102;2023-07-20T02:27:36;17.50;95.10
27890;DHT22;15238;49.082;9.102;2023-07-20T02:29:37;17.40;95.10
27890;DHT22;15238;49.082;9.102;2023-07-20T02:31:38;17.40;95.40
27890;DHT22;15238;49.082;9.102;2023-07-20T02:33:39;17.40;95.50
27890;DHT22;15238;49.082;9.102;2023-07-20T02:35:40;17.30;95.70
27890;DHT22;15238;49.082;9.102;2023-07-20T02:37:41;17.30;96.10
27890;DHT22;15238;49.082;9.102;2023-07-20T02:39:41;17.20;95.90
27890;DHT22;15238;49.082;9.102;2023-07-20T02:41:42;17.20;96.10
27890;DHT22;15238;49.082;9.102;2023-07-20T02:43:42;17.20;96.20
27890;DHT22;15238;49.082;9.102;2023-07-20T02:45:43;17.20;96.20
27890;DHT22;15238;49.082;9.102;2023-07-20T02:47:44;17.20;96.30
27890;DHT22;15238;49.082;9.102;2023-07-20T02:49:44;17.20;96.40
27890;DHT22;15238;49.082;9.102;2023-07-20T02:51:45;17.20;96.50
27890;DHT22;15238;49.082;9.102;2023-07-20T02:53:46;17.10;96.50
27890;DHT22;15238;49.082;9.102;2023-07-20T02:55:47;17.10;96.60
27890;DHT22;15238;49.082;9.102;2023-07-20T02:57:47;17.20;96.80
27890;DHT22;15238;49.082;9.102;2023-07-20T02:59:48;17.10;97.00
27890;DHT22;15238;49.082;9.102;2023-07-20T03:01:48;17.10;97.10
27890;DHT22;15238;49.082;9.102;2023-07-20T03:03:49;17.10;97.30
27890;DHT22;15238;49.082;9.102;2023-07-20T03:05:50;17.10;97.40
27890;DHT22;15238;49.082;9.102;2023-07-20T03:07:55;17.10;97.60
27890;DHT22;15238;49.082;9.102;2023-07-20T03:09:56;17.00;97.80
27890;DHT22;15238;49.082;9.102;2023-07-20T03:11:56;17.00;97.90
27890;DHT22;15238;49.082;9.102;2023-07-20T03:13:57;17.00;98.00
27890;DHT22;15238;49.082;9.102;2023-07-20T03:15:57;17.00;98.00
27890;DHT22;15238;49.082;9.102;2023-07-20T03:17:58;17.00;98.10
27890;DHT22;15238;49.082;9.102;2023-07-20T03:19:59;16.90;98.20
27890;DHT22;15238;49.082;9.102;2023-07-20T03:22:00;16.90;98.40
27890;DHT22;15238;49.082;9.102;2023-07-20T03:24:01;16.90;98.50
27890;DHT22;15238;49.082;9.102;2023-07-20T03:26:01;16.80;98.90
27890;DHT22;15238;49.082;9.102;2023-07-20T03:28:02;16.80;99.20
27890;DHT22;15238;49.082;9.102;2023-07-20T03:30:03;16.70;99.40
27890;DHT22;15238;49.082;9.102;2023-07-20T03:32:04;16.70;99.60
27890;DHT22;15238;49.082;9.102;2023-07-20T03:34:05;16.70;99.70
27890;DHT22;15238;49.082;9.102;2023-07-20T03:36:05;16.60;99.90
27890;DHT22;15238;49.082;9.102;2023-07-20T03:38:06;16.60;99.90
27890;DHT22;15238;49.082;9.102;2023-07-20T03:40:07;16.60;99.90
27890;DHT22;15238;49.082;9.102;2023-07-20T03:42:08;16.60;99.90
27890;DHT22;15238;49.082;9.102;2023-07-20T03:44:08;16.60;99.90
27890;DHT22;15238;49.082;9.102;2023-07-20T03:46:09;16.60;99.90
27890;DHT22;15238;49.082;9.102;2023-07-20T03:48:09;16.50;99.90
27890;DHT22;15238;49.082;9.102;2023-07-20T03:50:10;16.50;99.90
27890;DHT22;15238;49.082;9.102;2023-07-20T03:52:11;16.50;99.90
27890;DHT22;15238;49.082;9.102;2023-07-20T03:54:11;16.50;99.90
27890;DHT22;15238;49.082;9.102;2023-07-20T03:56:12;16.50;99.90
27890;DHT22;15238;49.082;9.102;2023-07-20T03:58:13;16.50;99.90
27890;DHT22;15238;49.082;9.102;2023-07-20T04:00:14;16.50;99.90
27890;DHT22;15238;49.082;9.102;2023-07-20T04:02:16;16.50;99.90
27890;DHT22;15238;49.082;9.102;2023-07-20T04:04:17;16.50;99.90
27890;DHT22;15238;49.082;9.102;2023-07-20T04:06:17;16.50;99.90
27890;DHT22;15238;49.082;9.102;2023-07-20T04:08:18;16.50;99.90
27890;DHT22;15238;49.082;9.102;2023-07-20T04:10:19;16.60;99.90
27890;DHT22;15238;49.082;9.102;2023-07-20T04:12:20;16.50;99.90
27890;DHT22;15238;49.082;9.102;2023-07-20T04:14:20;16.60;99.90
27890;DHT22;15238;49.082;9.102;2023-07-20T04:16:21;16.60;99.90
27890;DHT22;15238;49.082;9.102;2023-07-20T04:18:21;16.60;99.90
27890;DHT22;15238;49.082;9.102;2023-07-20T04:20:23;16.70;99.90
27890;DHT22;15238;49.082;9.102;2023-07-20T04:22:23;16.70;99.90
27890;DHT22;15238;49.082;9.102;2023-07-20T04:24:24;16.80;99.90
27890;DHT22;15238;49.082;9.102;2023-07-20T04:26:25;16.90;99.90
27890;DHT22;15238;49.082;9.102;2023-07-20T04:28:25;17.00;99.90
27890;DHT22;15238;49.082;9.102;2023-07-20T04:30:26;17.00;99.90
27890;DHT22;15238;49.082;9.102;2023-07-20T04:32:27;17.10;99.90
27890;DHT22;15238;49.082;9.102;2023-07-20T04:34:27;17.20;99.90
27890;DHT22;15238;49.082;9.102;2023-07-20T04:36:28;17.30;99.90
27890;DHT22;15238;49.082;9.102;2023-07-20T04:38:28;17.40;99.90
27890;DHT22;15238;49.082;9.102;2023-07-20T04:40:29;17.40;99.90
27890;DHT22;15238;49.082;9.102;2023-07-20T04:42:29;17.50;99.90
27890;DHT22;15238;49.082;9.102;2023-07-20T04:44:30;17.60;99.90
27890;DHT22;15238;49.082;9.102;2023-07-20T04:46:30;17.70;99.90
27890;DHT22;15238;49.082;9.102;2023-07-20T04:48:31;17.80;99.90
27890;DHT22;15238;49.082;9.102;2023-07-20T04:50:31;17.80;99.90
27890;DHT22;15238;49.082;9.102;2023-07-20T04:52:32;17.80;99.90
27890;DHT22;15238;49.082;9.102;2023-07-20T04:54:32;17.80;99.90
27890;DHT22;15238;49.082;9.102;2023-07-20T04:56:33;17.90;99.90
27890;DHT22;15238;49.082;9.102;2023-07-20T04:58:34;18.00;99.90
27890;DHT22;15238;49.082;9.102;2023-07-20T05:00:35;18.10;99.90
27890;DHT22;15238;49.082;9.102;2023-07-20T05:02:35;18.20;99.90
27890;DHT22;15238;49.082;9.102;2023-07-20T05:04:36;18.30;99.80
27890;DHT22;15238;49.082;9.102;2023-07-20T05:06:36;18.50;99.70
27890;DHT22;15238;49.082;9.102;2023-07-20T05:08:39;18.60;99.30
27890;DHT22;15238;49.082;9.102;2023-07-20T05:10:39;18.70;99.10
27890;DHT22;15238;49.082;9.102;2023-07-20T05:12:40;18.80;98.50
27890;DHT22;15238;49.082;9.102;2023-07-20T05:14:40;18.80;98.20
27890;DHT22;15238;49.082;9.102;2023-07-20T05:16:42;18.90;98.30
27890;DHT22;15238;49.082;9.102;2023-07-20T05:18:42;19.00;98.20
27890;DHT22;15238;49.082;9.102;2023-07-20T05:20:43;19.10;98.10
27890;DHT22;15238;49.082;9.102;2023-07-20T05:22:45;19.20;98.10
27890;DHT22;15238;49.082;9.102;2023-07-20T05:24:46;19.30;98.00
27890;DHT22;15238;49.082;9.102;2023-07-20T05:26:48;19.50;98.00
27890;DHT22;15238;49.082;9.102;2023-07-20T05:28:48;19.50;97.70
27890;DHT22;15238;49.082;9.102;2023-07-20T05:30:53;19.60;97.30
27890;DHT22;15238;49.082;9.102;2023-07-20T05:32:53;19.60;97.10
27890;DHT22;15238;49.082;9.102;2023-07-20T05:34:54;19.70;96.90
27890;DHT22;15238;49.082;9.102;2023-07-20T05:36:55;19.60;97.00
27890;DHT22;15238;49.082;9.102;2023-07-20T05:38:56;19.70;96.90
27890;DHT22;15238;49.082;9.102;2023-07-20T05:41:00;19.90;96.70
27890;DHT22;15238;49.082;9.102;2023-07-20T05:43:03;20.00;96.30
27890;DHT22;15238;49.082;9.102;2023-07-20T05:45:04;20.10;96.30
27890;DHT22;15238;49.082;9.102;2023-07-20T05:47:05;20.40;96.10
27890;DHT22;15238;49.082;9.102;2023-07-20T05:49:06;20.50;95.80
27890;DHT22;15238;49.082;9.102;2023-07-20T05:51:06;20.70;95.20
27890;DHT22;15238;49.082;9.102;2023-07-20T05:53:08;20.60;95.10
27890;DHT22;15238;49.082;9.102;2023-07-20T05:55:08;20.70;94.90
27890;DHT22;15238;49.082;9.102;2023-07-20T05:57:09;20.90;94.80
27890;DHT22;15238;49.082;9.102;2023-07-20T05:59:10;21.00;94.20
27890;DHT22;15238;49.082;9.102;2023-07-20T06:01:10;21.10;94.20
27890;DHT22;15238;49.082;9.102;2023-07-20T06:03:11;21.20;93.80
27890;DHT22;15238;49.082;9.102;2023-07-20T06:05:12;21.40;93.80
27890;DHT22;15238;49.082;9.102;2023-07-20T06:07:12;21.50;93.30
27890;DHT22;15238;49.082;9.102;2023-07-20T06:09:13;21.40;94.00
27890;DHT22;15238;49.082;9.102;2023-07-20T06:11:13;21.60;93.30
27890;DHT22;15238;49.082;9.102;2023-07-20T06:13:14;21.90;92.80
27890;DHT22;15238;49.082;9.102;2023-07-20T06:15:25;22.10;92.20
27890;DHT22;15238;49.082;9.102;2023-07-20T06:17:26;22.20;92.00
27890;DHT22;15238;49.082;9.102;2023-07-20T06:19:27;22.30;91.60
27890;DHT22;15238;49.082;9.102;2023-07-20T06:21:27;22.10;92.00
27890;DHT22;15238;49.082;9.102;2023-07-20T06:23:28;22.10;92.20
27890;DHT22;15238;49.082;9.102;2023-07-20T06:25:28;22.40;91.90
27890;DHT22;15238;49.082;9.102;2023-07-20T06:27:29;22.70;91.30
27890;DHT22;15238;49.082;9.102;2023-07-20T06:29:29;22.80;90.80
27890;DHT22;15238;49.082;9.102;2023-07-20T06:31:30;23.10;90.10
27890;DHT22;15238;49.082;9.102;2023-07-20T06:33:30;23.10;90.40
27890;DHT22;15238;49.082;9.102;2023-07-20T06:35:31;23.10;90.40
27890;DHT22;15238;49.082;9.102;2023-07-20T06:37:31;23.30;90.00
27890;DHT22;15238;49.082;9.102;2023-07-20T06:39:33;23.40;89.30
27890;DHT22;15238;49.082;9.102;2023-07-20T06:41:33;23.70;89.30
27890;DHT22;15238;49.082;9.102;2023-07-20T06:43:34;23.90;87.90
27890;DHT22;15238;49.082;9.102;2023-07-20T06:45:35;24.00;86.70
27890;DHT22;15238;49.082;9.102;2023-07-20T06:47:38;23.80;86.10
27890;DHT22;15238;49.082;9.102;2023-07-20T06:49:39;23.90;87.40
27890;DHT22;15238;49.082;9.102;2023-07-20T06:56:41;23.70;87.00
27890;DHT22;15238;49.082;9.102;2023-07-20T06:58:41;23.70;86.80
27890;DHT22;15238;49.082;9.102;2023-07-20T07:00:42;23.70;87.20
27890;DHT22;15238;49.082;9.102;2023-07-20T07:02:43;23.70;87.10
27890;DHT22;15238;49.082;9.102;2023-07-20T07:04:43;23.90;87.70
27890;DHT22;15238;49.082;9.102;2023-07-20T07:06:44;23.90;86.30
27890;DHT22;15238;49.082;9.102;2023-07-20T07:08:44;23.60;87.40
27890;DHT22;15238;49.082;9.102;2023-07-20T07:10:45;23.20;88.30
27890;DHT22;15238;49.082;9.102;2023-07-20T07:12:45;23.30;88.60
27890;DHT22;15238;49.082;9.102;2023-07-20T07:14:46;23.50;88.30
27890;DHT22;15238;49.082;9.102;2023-07-20T07:16:47;23.60;88.00
27890;DHT22;15238;49.082;9.102;2023-07-20T07:18:50;23.60;87.90
27890;DHT22;15238;49.082;9.102;2023-07-20T07:20:54;23.70;87.60
27890;DHT22;15238;49.082;9.102;2023-07-20T07:37:40;23.40;89.00
27890;DHT22;15238;49.082;9.102;2023-07-20T07:39:41;23.10;88.70
27890;DHT22;15238;49.082;9.102;2023-07-20T07:41:41;23.20;89.60
27890;DHT22;15238;49.082;9.102;2023-07-20T07:43:42;23.50;88.30
27890;DHT22;15238;49.082;9.102;2023-07-20T07:45:43;23.70;88.00
27890;DHT22;15238;49.082;9.102;2023-07-20T07:47:44;24.00;87.60
27890;DHT22;15238;49.082;9.102;2023-07-20T07:49:44;23.70;86.60
27890;DHT22;15238;49.082;9.102;2023-07-20T08:02:47;24.20;86.00
27890;DHT22;15238;49.082;9.102;2023-07-20T08:04:50;24.30;86.00
27890;DHT22;15238;49.082;9.102;2023-07-20T08:06:52;24.10;85.30
27890;DHT22;15238;49.082;9.102;2023-07-20T08:08:53;24.10;84.70
27890;DHT22;15238;49.082;9.102;2023-07-20T08:10:54;23.80;86.00
27890;DHT22;15238;49.082;9.102;2023-07-20T08:12:55;23.80;86.60
27890;DHT22;15238;49.082;9.102;2023-07-20T08:14:56;23.70;86.20
27890;DHT22;15238;49.082;9.102;2023-07-20T08:16:56;23.80;86.40
27890;DHT22;15238;49.082;9.102;2023-07-20T08:18:57;23.60;85.70
27890;DHT22;15238;49.082;9.102;2023-07-20T08:20:57;23.50;86.20
27890;DHT22;15238;49.082;9.102;2023-07-20T08:22:58;23.20;86.50
27890;DHT22;15238;49.082;9.102;2023-07-20T08:25:00;23.00;86.30
27890;DHT22;15238;49.082;9.102;2023-07-20T08:27:00;23.10;87.50
27890;DHT22;15238;49.082;9.102;2023-07-20T08:29:01;23.30;83.60
27890;DHT22;15238;49.082;9.102;2023-07-20T08:31:01;23.60;84.20
27890;DHT22;15238;49.082;9.102;2023-07-20T08:33:03;24.00;84.00
27890;DHT22;15238;49.082;9.102;2023-07-20T08:35:03;24.20;83.70
27890;DHT22;15238;49.082;9.102;2023-07-20T08:37:04;24.20;82.10
27890;DHT22;15238;49.082;9.102;2023-07-20T08:39:05;24.40;82.20
27890;DHT22;15238;49.082;9.102;2023-07-20T08:41:06;24.80;81.40
27890;DHT22;15238;49.082;9.102;2023-07-20T08:43:06;24.70;80.90
27890;DHT22;15238;49.082;9.102;2023-07-20T08:45:08;24.90;81.00
27890;DHT22;15238;49.082;9.102;2023-07-20T08:47:09;25.00;80.30
27890;DHT22;15238;49.082;9.102;2023-07-20T08:49:11;24.70;81.30
27890;DHT22;15238;49.082;9.102;2023-07-20T08:51:12;24.50;81.70
27890;DHT22;15238;49.082;9.102;2023-07-20T08:53:13;24.30;81.50
27890;DHT22;15238;49.082;9.102;2023-07-20T08:55:14;24.40;82.90
27890;DHT22;15238;49.082;9.102;2023-07-20T08:57:15;24.50;81.40
27890;DHT22;15238;49.082;9.102;2023-07-20T08:59:17;24.60;79.70
27890;DHT22;15238;49.082;9.102;2023-07-20T09:01:19;24.60;77.50
27890;DHT22;15238;49.082;9.102;2023-07-20T09:03:19;24.40;77.70
27890;DHT22;15238;49.082;9.102;2023-07-20T09:05:22;24.30;78.50
27890;DHT22;15238;49.082;9.102;2023-07-20T09:07:23;24.00;79.50
27890;DHT22;15238;49.082;9.102;2023-07-20T09:09:25;23.90;78.80
27890;DHT22;15238;49.082;9.102;2023-07-20T09:11:25;24.20;77.50
27890;DHT22;15238;49.082;9.102;2023-07-20T09:13:26;24.30;78.70
27890;DHT22;15238;49.082;9.102;2023-07-20T09:15:28;24.20;79.50
27890;DHT22;15238;49.082;9.102;2023-07-20T09:17:29;24.30;80.90
27890;DHT22;15238;49.082;9.102;2023-07-20T09:19:29;24.50;80.60
27890;DHT22;15238;49.082;9.102;2023-07-20T09:21:30;24.60;78.40
27890;DHT22;15238;49.082;9.102;2023-07-20T09:23:34;24.90;78.20
27890;DHT22;15238;49.082;9.102;2023-07-20T09:25:36;25.30;78.30
27890;DHT22;15238;49.082;9.102;2023-07-20T09:27:38;25.80;76.50
27890;DHT22;15238;49.082;9.102;2023-07-20T09:29:49;25.70;76.90
27890;DHT22;15238;49.082;9.102;2023-07-20T09:32:03;25.40;77.20
27890;DHT22;15238;49.082;9.102;2023-07-20T09:34:04;25.30;76.90
27890;DHT22;15238;49.082;9.102;2023-07-20T09:36:05;25.50;77.40
27890;DHT22;15238;49.082;9.102;2023-07-20T09:38:06;25.60;77.90
27890;DHT22;15238;49.082;9.102;2023-07-20T09:40:07;25.50;78.20
27890;DHT22;15238;49.082;9.102;2023-07-20T09:42:13;25.40;75.50
27890;DHT22;15238;49.082;9.102;2023-07-20T09:44:16;25.40;75.30
27890;DHT22;15238;49.082;9.102;2023-07-20T09:46:17;25.40;74.80
27890;DHT22;15238;49.082;9.102;2023-07-20T09:48:24;25.20;73.20
27890;DHT22;15238;49.082;9.102;2023-07-20T09:50:25;25.60;71.30
27890;DHT22;15238;49.082;9.102;2023-07-20T09:52:26;25.40;70.40
27890;DHT22;15238;49.082;9.102;2023-07-20T09:54:27;25.30;72.70
27890;DHT22;15238;49.082;9.102;2023-07-20T09:56:30;25.10;73.80
27890;DHT22;15238;49.082;9.102;2023-07-20T09:58:32;25.00;75.60
27890;DHT22;15238;49.082;9.102;2023-07-20T10:00:34;25.20;75.70
27890;DHT22;15238;49.082;9.102;2023-07-20T10:02:37;25.50;72.90
27890;DHT22;15238;49.082;9.102;2023-07-20T10:04:42;25.30;74.00
27890;DHT22;15238;49.082;9.102;2023-07-20T10:06:44;25.30;74.50
27890;DHT22;15238;49.082;9.102;2023-07-20T10:08:47;25.70;73.10
27890;DHT22;15238;49.082;9.102;2023-07-20T10:10:48;26.00;72.50
27890;DHT22;15238;49.082;9.102;2023-07-20T10:12:50;26.00;72.80
27890;DHT22;15238;49.082;9.102;2023-07-20T10:15:07;26.30;72.60
27890;DHT22;15238;49.082;9.102;2023-07-20T10:17:11;26.30;71.60
27890;DHT22;15238;49.082;9.102;2023-07-20T10:21:35;25.80;69.90
27890;DHT22;15238;49.082;9.102;2023-07-20T10:23:38;25.60;69.20
27890;DHT22;15238;49.082;9.102;2023-07-20T10:25:40;25.50;69.80
27890;DHT22;15238;49.082;9.102;2023-07-20T10:27:43;25.90;67.80
27890;DHT22;15238;49.082;9.102;2023-07-20T10:29:43;26.40;67.30
27890;DHT22;15238;49.082;9.102;2023-07-20T10:31:44;26.70;69.00
27890;DHT22;15238;49.082;9.102;2023-07-20T10:33:46;27.00;67.50
27890;DHT22;15238;49.082;9.102;2023-07-20T10:36:01;26.80;68.10
27890;DHT22;15238;49.082;9.102;2023-07-20T10:38:03;26.60;66.90
27890;DHT22;15238;49.082;9.102;2023-07-20T10:42:33;26.60;68.60
27890;DHT22;15238;49.082;9.102;2023-07-20T10:44:34;26.90;64.80
27890;DHT22;15238;49.082;9.102;2023-07-20T10:48:59;27.00;63.90
27890;DHT22;15238;49.082;9.102;2023-07-20T10:51:14;26.80;65.60
27890;DHT22;15238;49.082;9.102;2023-07-20T10:53:20;26.80;65.50
27890;DHT22;15238;49.082;9.102;2023-07-20T10:55:20;26.70;66.10
27890;DHT22;15238;49.082;9.102;2023-07-20T10:57:31;26.70;64.60
27890;DHT22;15238;49.082;9.102;2023-07-20T11:01:39;26.90;65.70
27890;DHT22;15238;49.082;9.102;2023-07-20T11:03:42;27.30;65.80
27890;DHT22;15238;49.082;9.102;2023-07-20T11:05:43;27.20;64.20
27890;DHT22;15238;49.082;9.102;2023-07-20T11:07:43;27.50;61.80
27890;DHT22;15238;49.082;9.102;2023-07-20T11:09:44;27.40;61.00
27890;DHT22;15238;49.082;9.102;2023-07-20T11:11:46;27.30;62.60
27890;DHT22;15238;49.082;9.102;2023-07-20T11:14:40;26.90;61.10
27890;DHT22;15238;49.082;9.102;2023-07-20T11:16:16;26.90;61.90
27890;DHT22;15238;49.082;9.102;2023-07-20T11:18:17;26.70;63.00
27890;DHT22;15238;49.082;9.102;2023-07-20T11:20:18;26.20;63.70
27890;DHT22;15238;49.082;9.102;2023-07-20T11:22:20;26.10;66.00
27890;DHT22;15238;49.082;9.102;2023-07-20T11:24:21;26.50;65.00
27890;DHT22;15238;49.082;9.102;2023-07-20T11:26:22;26.60;63.20
27890;DHT22;15238;49.082;9.102;2023-07-20T11:28:22;26.50;63.40
27890;DHT22;15238;49.082;9.102;2023-07-20T11:30:23;26.40;64.30
27890;DHT22;15238;49.082;9.102;2023-07-20T11:32:24;25.90;65.00
27890;DHT22;15238;49.082;9.102;2023-07-20T11:34:25;25.20;66.50
27890;DHT22;15238;49.082;9.102;2023-07-20T11:36:25;25.20;66.20
27890;DHT22;15238;49.082;9.102;2023-07-20T11:38:26;25.40;64.50
27890;DHT22;15238;49.082;9.102;2023-07-20T11:40:26;25.40;64.40
27890;DHT22;15238;49.082;9.102;2023-07-20T11:42:27;25.40;63.20
27890;DHT22;15238;49.082;9.102;2023-07-20T11:44:29;25.10;64.70
27890;DHT22;15238;49.082;9.102;2023-07-20T11:46:29;25.00;66.80
27890;DHT22;15238;49.082;9.102;2023-07-20T11:48:30;25.00;66.50
27890;DHT22;15238;49.082;9.102;2023-07-20T11:50:30;25.40;65.90
27890;DHT22;15238;49.082;9.102;2023-07-20T11:52:31;25.60;62.90
27890;DHT22;15238;49.082;9.102;2023-07-20T11:54:33;26.00;63.70
27890;DHT22;15238;49.082;9.102;2023-07-20T11:56:34;25.90;63.20
27890;DHT22;15238;49.082;9.102;2023-07-20T11:58:34;26.00;61.70
27890;DHT22;15238;49.082;9.102;2023-07-20T12:00:37;26.10;62.00
27890;DHT22;15238;49.082;9.102;2023-07-20T12:02:38;26.50;61.40
27890;DHT22;15238;49.082;9.102;2023-07-20T12:04:41;26.70;62.00
27890;DHT22;15238;49.082;9.102;2023-07-20T12:06:42;26.80;61.20
27890;DHT22;15238;49.082;9.102;2023-07-20T12:08:43;26.60;59.20
27890;DHT22;15238;49.082;9.102;2023-07-20T12:10:44;26.60;59.90
27890;DHT22;15238;49.082;9.102;2023-07-20T12:12:45;26.80;56.60
27890;DHT22;15238;49.082;9.102;2023-07-20T12:14:46;26.90;57.50
27890;DHT22;15238;49.082;9.102;2023-07-20T12:16:53;27.20;58.90
27890;DHT22;15238;49.082;9.102;2023-07-20T12:19:01;27.00;58.50
27890;DHT22;15238;49.082;9.102;2023-07-20T12:21:02;26.80;59.20
27890;DHT22;15238;49.082;9.102;2023-07-20T12:23:08;26.90;59.60
27890;DHT22;15238;49.082;9.102;2023-07-20T12:25:09;27.00;59.40
27890;DHT22;15238;49.082;9.102;2023-07-20T12:27:13;27.30;59.10
27890;DHT22;15238;49.082;9.102;2023-07-20T12:29:14;27.50;58.60
27890;DHT22;15238;49.082;9.102;2023-07-20T12:31:15;27.80;57.50
27890;DHT22;15238;49.082;9.102;2023-07-20T12:33:16;28.10;56.70
27890;DHT22;15238;49.082;9.102;2023-07-20T12:35:16;28.30;57.20
27890;DHT22;15238;49.082;9.102;2023-07-20T12:37:20;28.30;55.10
27890;DHT22;15238;49.082;9.102;2023-07-20T12:39:20;28.20;54.60
27890;DHT22;15238;49.082;9.102;2023-07-20T12:41:21;28.50;54.40
27890;DHT22;15238;49.082;9.102;2023-07-20T12:43:21;28.70;53.50
27890;DHT22;15238;49.082;9.102;2023-07-20T12:45:22;28.70;55.30
27890;DHT22;15238;49.082;9.102;2023-07-20T12:47:22;28.70;55.70
27890;DHT22;15238;49.082;9.102;2023-07-20T12:49:23;28.10;56.50
27890;DHT22;15238;49.082;9.102;2023-07-20T12:51:23;28.10;57.00
27890;DHT22;15238;49.082;9.102;2023-07-20T12:53:24;28.30;57.50
27890;DHT22;15238;49.082;9.102;2023-07-20T12:55:25;28.10;56.20
27890;DHT22;15238;49.082;9.102;2023-07-20T12:57:25;27.70;55.70
27890;DHT22;15238;49.082;9.102;2023-07-20T12:59:26;27.40;56.50
27890;DHT22;15238;49.082;9.102;2023-07-20T13:01:26;26.90;56.50
27890;DHT22;15238;49.082;9.102;2023-07-20T13:03:27;26.80;57.70
27890;DHT22;15238;49.082;9.102;2023-07-20T13:05:27;26.80;57.90
27890;DHT22;15238;49.082;9.102;2023-07-20T13:07:39;26.90;57.30
27890;DHT22;15238;49.082;9.102;2023-07-20T13:09:39;26.90;57.10
27890;DHT22;15238;49.082;9.102;2023-07-20T13:11:40;27.10;56.10
27890;DHT22;15238;49.082;9.102;2023-07-20T13:13:40;27.20;55.80
27890;DHT22;15238;49.082;9.102;2023-07-20T13:15:43;27.40;57.20
27890;DHT22;15238;49.082;9.102;2023-07-20T13:17:44;27.60;56.60
27890;DHT22;15238;49.082;9.102;2023-07-20T13:19:45;27.70;56.20
27890;DHT22;15238;49.082;9.102;2023-07-20T13:21:45;27.40;54.70
27890;DHT22;15238;49.082;9.102;2023-07-20T13:23:46;27.30;56.50
27890;DHT22;15238;49.082;9.102;2023-07-20T13:25:46;27.40;56.00
27890;DHT22;15238;49.082;9.102;2023-07-20T13:27:47;27.30;56.70
27890;DHT22;15238;49.082;9.102;2023-07-20T13:29:48;27.20;55.00
27890;DHT22;15238;49.082;9.102;2023-07-20T13:31:48;27.20;55.10
27890;DHT22;15238;49.082;9.102;2023-07-20T13:33:49;27.50;55.70
27890;DHT22;15238;49.082;9.102;2023-07-20T13:35:50;27.50;54.70
27890;DHT22;15238;49.082;9.102;2023-07-20T13:37:50;27.70;56.20